Bloomington, Texas
Current Conditions -  °F | °C
As of 10:55 PM on Thursday 30 Oct 2014 (Local Time) from KPKV Reporting Station
Clear Clear  
Wind Chill: 69°   Ceiling: Unl
Heat Index: 69°   Visibility: 10mi
Dew Point: 66°   Wind: 3mph
Humidity: 91%   Direction: 150°SSE
Pressure: 30.09"   Gusts: NA
Location:  28.65°N, 96.89°W
Report Text: KPKV 310355Z AUTO 15003KT 10SM CLR 21/19 A3009 RMK AO2 T02060191
Loading
Personal Weather Stations






























Interactive Weather Map
Tropical Storm Tracking
New forecast layout! Learn more

10-Day Weather Forecast

Advertisements
Track Severe Weather on mobile